sensor_id;sensor_type;location;lat;lon;timestamp;temperature;humidity
12588;DHT22;6359;51.450;7.346;2022-08-21T00:01:34;14.60;99.90
12588;DHT22;6359;51.450;7.346;2022-08-21T00:04:04;14.50;99.90
12588;DHT22;6359;51.450;7.346;2022-08-21T00:06:31;14.40;99.90
12588;DHT22;6359;51.450;7.346;2022-08-21T00:08:59;14.30;99.90
12588;DHT22;6359;51.450;7.346;2022-08-21T00:11:26;14.30;99.90
12588;DHT22;6359;51.450;7.346;2022-08-21T00:13:53;14.20;99.90
12588;DHT22;6359;51.450;7.346;2022-08-21T00:16:21;14.20;99.90
12588;DHT22;6359;51.450;7.346;2022-08-21T00:18:49;14.20;99.90
12588;DHT22;6359;51.450;7.346;2022-08-21T00:21:16;14.30;99.90
12588;DHT22;6359;51.450;7.346;2022-08-21T00:23:44;14.30;99.90
12588;DHT22;6359;51.450;7.346;2022-08-21T00:26:11;14.30;99.90
12588;DHT22;6359;51.450;7.346;2022-08-21T00:28:38;14.40;99.90
12588;DHT22;6359;51.450;7.346;2022-08-21T00:31:05;14.50;99.90
12588;DHT22;6359;51.450;7.346;2022-08-21T00:33:32;14.50;99.90
12588;DHT22;6359;51.450;7.346;2022-08-21T00:36:01;14.50;99.90
12588;DHT22;6359;51.450;7.346;2022-08-21T00:38:28;14.50;99.90
12588;DHT22;6359;51.450;7.346;2022-08-21T00:40:58;14.50;99.90
12588;DHT22;6359;51.450;7.346;2022-08-21T00:43:27;14.40;99.90
12588;DHT22;6359;51.450;7.346;2022-08-21T00:45:55;14.30;99.90
12588;DHT22;6359;51.450;7.346;2022-08-21T00:48:23;14.30;99.90
12588;DHT22;6359;51.450;7.346;2022-08-21T00:50:54;14.30;99.90
12588;DHT22;6359;51.450;7.346;2022-08-21T00:53:24;14.30;99.90
12588;DHT22;6359;51.450;7.346;2022-08-21T00:55:52;14.30;99.90
12588;DHT22;6359;51.450;7.346;2022-08-21T00:58:19;14.30;99.90
12588;DHT22;6359;51.450;7.346;2022-08-21T01:00:49;14.20;99.90
12588;DHT22;6359;51.450;7.346;2022-08-21T01:03:18;14.20;99.90
12588;DHT22;6359;51.450;7.346;2022-08-21T01:05:46;14.10;99.90
12588;DHT22;6359;51.450;7.346;2022-08-21T01:08:15;14.20;99.90
12588;DHT22;6359;51.450;7.346;2022-08-21T01:10:45;14.20;99.90
12588;DHT22;6359;51.450;7.346;2022-08-21T01:13:15;14.20;99.90
12588;DHT22;6359;51.450;7.346;2022-08-21T01:15:45;14.30;99.90
12588;DHT22;6359;51.450;7.346;2022-08-21T01:18:13;14.40;99.90
12588;DHT22;6359;51.450;7.346;2022-08-21T01:20:44;14.40;99.90
12588;DHT22;6359;51.450;7.346;2022-08-21T01:23:13;14.50;99.90
12588;DHT22;6359;51.450;7.346;2022-08-21T01:25:40;14.60;99.90
12588;DHT22;6359;51.450;7.346;2022-08-21T01:28:11;14.60;99.90
12588;DHT22;6359;51.450;7.346;2022-08-21T01:30:40;14.70;99.90
12588;DHT22;6359;51.450;7.346;2022-08-21T01:33:08;14.80;99.90
12588;DHT22;6359;51.450;7.346;2022-08-21T01:35:35;14.90;99.90
12588;DHT22;6359;51.450;7.346;2022-08-21T01:38:03;15.00;99.90
12588;DHT22;6359;51.450;7.346;2022-08-21T01:40:31;15.00;99.90
12588;DHT22;6359;51.450;7.346;2022-08-21T01:42:58;15.10;99.90
12588;DHT22;6359;51.450;7.346;2022-08-21T01:45:25;15.00;99.90
12588;DHT22;6359;51.450;7.346;2022-08-21T01:47:52;14.90;99.90
12588;DHT22;6359;51.450;7.346;2022-08-21T01:50:19;14.90;99.90
12588;DHT22;6359;51.450;7.346;2022-08-21T01:52:47;14.80;99.90
12588;DHT22;6359;51.450;7.346;2022-08-21T01:55:15;14.70;99.90
12588;DHT22;6359;51.450;7.346;2022-08-21T01:57:45;14.60;99.90
12588;DHT22;6359;51.450;7.346;2022-08-21T02:00:15;14.50;99.90
12588;DHT22;6359;51.450;7.346;2022-08-21T02:02:43;14.40;99.90
12588;DHT22;6359;51.450;7.346;2022-08-21T02:05:11;14.30;99.90
12588;DHT22;6359;51.450;7.346;2022-08-21T02:07:39;14.30;99.90
12588;DHT22;6359;51.450;7.346;2022-08-21T02:10:09;14.20;99.90
12588;DHT22;6359;51.450;7.346;2022-08-21T02:12:36;14.10;99.90
12588;DHT22;6359;51.450;7.346;2022-08-21T02:15:06;14.00;99.90
12588;DHT22;6359;51.450;7.346;2022-08-21T02:17:38;13.90;99.90
12588;DHT22;6359;51.450;7.346;2022-08-21T02:20:06;13.90;99.90
12588;DHT22;6359;51.450;7.346;2022-08-21T02:22:33;13.90;99.90
12588;DHT22;6359;51.450;7.346;2022-08-21T02:25:00;13.90;99.90
12588;DHT22;6359;51.450;7.346;2022-08-21T02:27:27;13.90;99.90
12588;DHT22;6359;51.450;7.346;2022-08-21T02:29:56;13.80;99.90
12588;DHT22;6359;51.450;7.346;2022-08-21T02:32:25;13.70;99.90
12588;DHT22;6359;51.450;7.346;2022-08-21T02:34:52;13.60;99.90
12588;DHT22;6359;51.450;7.346;2022-08-21T02:37:18;13.60;99.90
12588;DHT22;6359;51.450;7.346;2022-08-21T02:39:46;13.50;99.90
12588;DHT22;6359;51.450;7.346;2022-08-21T02:42:13;13.50;99.90
12588;DHT22;6359;51.450;7.346;2022-08-21T02:44:40;13.40;99.90
12588;DHT22;6359;51.450;7.346;2022-08-21T02:47:07;13.40;99.90
12588;DHT22;6359;51.450;7.346;2022-08-21T02:49:35;13.30;99.90
12588;DHT22;6359;51.450;7.346;2022-08-21T02:52:02;13.30;99.90
12588;DHT22;6359;51.450;7.346;2022-08-21T02:54:31;13.40;99.90
12588;DHT22;6359;51.450;7.346;2022-08-21T02:56:58;13.40;99.90
12588;DHT22;6359;51.450;7.346;2022-08-21T02:59:25;13.30;99.90
12588;DHT22;6359;51.450;7.346;2022-08-21T03:01:52;13.20;99.90
12588;DHT22;6359;51.450;7.346;2022-08-21T03:04:19;13.10;99.90
12588;DHT22;6359;51.450;7.346;2022-08-21T03:06:47;13.10;99.90
12588;DHT22;6359;51.450;7.346;2022-08-21T03:09:14;13.00;99.90
12588;DHT22;6359;51.450;7.346;2022-08-21T03:11:41;13.00;99.90
12588;DHT22;6359;51.450;7.346;2022-08-21T03:14:09;13.00;99.90
12588;DHT22;6359;51.450;7.346;2022-08-21T03:16:36;13.00;99.90
12588;DHT22;6359;51.450;7.346;2022-08-21T03:19:03;13.00;99.90
12588;DHT22;6359;51.450;7.346;2022-08-21T03:21:30;12.90;99.90
12588;DHT22;6359;51.450;7.346;2022-08-21T03:23:59;12.90;99.90
12588;DHT22;6359;51.450;7.346;2022-08-21T03:26:26;12.80;99.90
12588;DHT22;6359;51.450;7.346;2022-08-21T03:28:52;12.80;99.90
12588;DHT22;6359;51.450;7.346;2022-08-21T03:31:20;12.80;99.90
12588;DHT22;6359;51.450;7.346;2022-08-21T03:33:47;12.90;99.90
12588;DHT22;6359;51.450;7.346;2022-08-21T03:36:14;13.00;99.90
12588;DHT22;6359;51.450;7.346;2022-08-21T03:38:42;13.00;99.90
12588;DHT22;6359;51.450;7.346;2022-08-21T03:41:10;13.00;99.90
12588;DHT22;6359;51.450;7.346;2022-08-21T03:43:37;13.00;99.90
12588;DHT22;6359;51.450;7.346;2022-08-21T03:46:06;12.90;99.90
12588;DHT22;6359;51.450;7.346;2022-08-21T03:48:34;12.90;99.90
12588;DHT22;6359;51.450;7.346;2022-08-21T03:51:02;12.80;99.90
12588;DHT22;6359;51.450;7.346;2022-08-21T03:53:29;12.70;99.90
12588;DHT22;6359;51.450;7.346;2022-08-21T03:55:56;12.70;99.90
12588;DHT22;6359;51.450;7.346;2022-08-21T03:58:26;12.60;99.90
12588;DHT22;6359;51.450;7.346;2022-08-21T04:00:55;12.50;99.90
12588;DHT22;6359;51.450;7.346;2022-08-21T04:03:23;12.50;99.90
12588;DHT22;6359;51.450;7.346;2022-08-21T04:05:50;12.40;99.90
12588;DHT22;6359;51.450;7.346;2022-08-21T04:08:18;12.40;99.90
12588;DHT22;6359;51.450;7.346;2022-08-21T04:10:47;12.40;99.90
12588;DHT22;6359;51.450;7.346;2022-08-21T04:13:15;12.40;99.90
12588;DHT22;6359;51.450;7.346;2022-08-21T04:15:43;12.40;99.90
12588;DHT22;6359;51.450;7.346;2022-08-21T04:18:10;12.40;99.90
12588;DHT22;6359;51.450;7.346;2022-08-21T04:20:38;12.40;99.90
12588;DHT22;6359;51.450;7.346;2022-08-21T04:23:06;12.50;99.90
12588;DHT22;6359;51.450;7.346;2022-08-21T04:25:33;12.40;99.90
12588;DHT22;6359;51.450;7.346;2022-08-21T04:28:01;12.40;99.90
12588;DHT22;6359;51.450;7.346;2022-08-21T04:30:28;12.40;99.90
12588;DHT22;6359;51.450;7.346;2022-08-21T04:32:57;12.40;99.90
12588;DHT22;6359;51.450;7.346;2022-08-21T04:35:26;12.40;99.90
12588;DHT22;6359;51.450;7.346;2022-08-21T04:37:53;12.40;99.90
12588;DHT22;6359;51.450;7.346;2022-08-21T04:40:22;12.40;99.90
12588;DHT22;6359;51.450;7.346;2022-08-21T04:42:51;12.40;99.90
12588;DHT22;6359;51.450;7.346;2022-08-21T04:45:21;12.40;99.90
12588;DHT22;6359;51.450;7.346;2022-08-21T04:47:49;12.50;99.90
12588;DHT22;6359;51.450;7.346;2022-08-21T04:50:19;12.50;99.90
12588;DHT22;6359;51.450;7.346;2022-08-21T04:52:46;12.50;99.90
12588;DHT22;6359;51.450;7.346;2022-08-21T04:55:14;12.50;99.90
12588;DHT22;6359;51.450;7.346;2022-08-21T04:57:42;12.50;99.90
12588;DHT22;6359;51.450;7.346;2022-08-21T05:00:10;12.50;99.90
12588;DHT22;6359;51.450;7.346;2022-08-21T05:02:39;12.60;99.90
12588;DHT22;6359;51.450;7.346;2022-08-21T05:05:08;12.60;99.90
12588;DHT22;6359;51.450;7.346;2022-08-21T05:07:37;12.70;99.90
12588;DHT22;6359;51.450;7.346;2022-08-21T05:10:05;12.70;99.90
12588;DHT22;6359;51.450;7.346;2022-08-21T05:12:33;12.80;99.90
12588;DHT22;6359;51.450;7.346;2022-08-21T05:15:01;12.90;99.90
12588;DHT22;6359;51.450;7.346;2022-08-21T05:17:28;13.00;99.90
12588;DHT22;6359;51.450;7.346;2022-08-21T05:19:55;13.00;99.90
12588;DHT22;6359;51.450;7.346;2022-08-21T05:22:23;13.10;99.90
12588;DHT22;6359;51.450;7.346;2022-08-21T05:24:52;13.20;99.90
12588;DHT22;6359;51.450;7.346;2022-08-21T05:27:19;13.30;99.90
12588;DHT22;6359;51.450;7.346;2022-08-21T05:29:46;13.40;99.90
12588;DHT22;6359;51.450;7.346;2022-08-21T05:32:14;13.60;99.90
12588;DHT22;6359;51.450;7.346;2022-08-21T05:34:41;13.70;99.90
12588;DHT22;6359;51.450;7.346;2022-08-21T05:37:11;13.90;99.90
12588;DHT22;6359;51.450;7.346;2022-08-21T05:39:38;14.00;99.90
12588;DHT22;6359;51.450;7.346;2022-08-21T05:42:07;14.00;99.90
12588;DHT22;6359;51.450;7.346;2022-08-21T05:44:34;14.20;99.90
12588;DHT22;6359;51.450;7.346;2022-08-21T05:47:06;14.30;99.90
12588;DHT22;6359;51.450;7.346;2022-08-21T05:49:33;14.30;99.90
12588;DHT22;6359;51.450;7.346;2022-08-21T05:52:01;14.50;99.90
12588;DHT22;6359;51.450;7.346;2022-08-21T05:54:29;14.60;99.90
12588;DHT22;6359;51.450;7.346;2022-08-21T05:56:56;14.80;99.90
12588;DHT22;6359;51.450;7.346;2022-08-21T05:59:25;15.10;99.90
12588;DHT22;6359;51.450;7.346;2022-08-21T06:01:53;15.30;99.90
12588;DHT22;6359;51.450;7.346;2022-08-21T06:04:20;15.40;99.90
12588;DHT22;6359;51.450;7.346;2022-08-21T06:06:47;15.50;99.90
12588;DHT22;6359;51.450;7.346;2022-08-21T06:09:14;15.70;99.90
12588;DHT22;6359;51.450;7.346;2022-08-21T06:11:41;15.90;99.90
12588;DHT22;6359;51.450;7.346;2022-08-21T06:14:08;16.00;99.90
12588;DHT22;6359;51.450;7.346;2022-08-21T06:16:37;16.30;99.90
12588;DHT22;6359;51.450;7.346;2022-08-21T06:19:04;17.20;99.90
12588;DHT22;6359;51.450;7.346;2022-08-21T06:21:31;18.50;99.90
12588;DHT22;6359;51.450;7.346;2022-08-21T06:23:58;20.00;99.90
12588;DHT22;6359;51.450;7.346;2022-08-21T06:26:25;21.30;99.90
12588;DHT22;6359;51.450;7.346;2022-08-21T06:28:53;22.50;99.90
12588;DHT22;6359;51.450;7.346;2022-08-21T06:31:23;23.40;99.90
12588;DHT22;6359;51.450;7.346;2022-08-21T06:33:52;23.80;99.90
12588;DHT22;6359;51.450;7.346;2022-08-21T06:36:20;24.60;99.90
12588;DHT22;6359;51.450;7.346;2022-08-21T06:38:47;24.60;99.90
12588;DHT22;6359;51.450;7.346;2022-08-21T06:41:14;25.00;99.90
12588;DHT22;6359;51.450;7.346;2022-08-21T06:43:41;25.50;99.90
12588;DHT22;6359;51.450;7.346;2022-08-21T06:46:08;25.80;99.90
12588;DHT22;6359;51.450;7.346;2022-08-21T06:48:35;26.00;99.90
12588;DHT22;6359;51.450;7.346;2022-08-21T06:51:04;26.40;99.90
12588;DHT22;6359;51.450;7.346;2022-08-21T06:53:31;26.70;99.90
12588;DHT22;6359;51.450;7.346;2022-08-21T06:55:59;27.20;99.90
12588;DHT22;6359;51.450;7.346;2022-08-21T06:58:26;27.20;99.90
12588;DHT22;6359;51.450;7.346;2022-08-21T07:00:53;27.50;99.90
12588;DHT22;6359;51.450;7.346;2022-08-21T07:03:23;27.60;99.90
12588;DHT22;6359;51.450;7.346;2022-08-21T07:05:51;27.60;99.90
12588;DHT22;6359;51.450;7.346;2022-08-21T07:08:20;28.40;99.90
12588;DHT22;6359;51.450;7.346;2022-08-21T07:10:48;28.80;99.90
12588;DHT22;6359;51.450;7.346;2022-08-21T07:13:15;29.00;99.90
12588;DHT22;6359;51.450;7.346;2022-08-21T07:15:43;29.20;99.90
12588;DHT22;6359;51.450;7.346;2022-08-21T07:18:11;29.20;99.90
12588;DHT22;6359;51.450;7.346;2022-08-21T07:20:39;29.60;99.90
12588;DHT22;6359;51.450;7.346;2022-08-21T07:23:09;29.60;99.90
12588;DHT22;6359;51.450;7.346;2022-08-21T07:25:39;29.80;99.90
12588;DHT22;6359;51.450;7.346;2022-08-21T07:28:06;29.80;99.90
12588;DHT22;6359;51.450;7.346;2022-08-21T07:30:33;29.50;99.90
12588;DHT22;6359;51.450;7.346;2022-08-21T07:33:00;29.80;99.90
12588;DHT22;6359;51.450;7.346;2022-08-21T07:35:27;30.00;99.20
12588;DHT22;6359;51.450;7.346;2022-08-21T07:37:56;30.10;98.30
12588;DHT22;6359;51.450;7.346;2022-08-21T07:40:23;30.00;98.70
12588;DHT22;6359;51.450;7.346;2022-08-21T07:42:52;30.20;98.70
12588;DHT22;6359;51.450;7.346;2022-08-21T07:45:21;30.20;98.30
12588;DHT22;6359;51.450;7.346;2022-08-21T07:47:50;30.80;96.20
12588;DHT22;6359;51.450;7.346;2022-08-21T07:50:19;30.40;96.50
12588;DHT22;6359;51.450;7.346;2022-08-21T07:52:46;30.60;95.70
12588;DHT22;6359;51.450;7.346;2022-08-21T07:55:16;30.50;95.60
12588;DHT22;6359;51.450;7.346;2022-08-21T07:57:43;30.50;95.10
12588;DHT22;6359;51.450;7.346;2022-08-21T08:00:14;30.70;94.30
12588;DHT22;6359;51.450;7.346;2022-08-21T08:02:44;31.00;93.40
12588;DHT22;6359;51.450;7.346;2022-08-21T08:05:12;30.90;92.50
12588;DHT22;6359;51.450;7.346;2022-08-21T08:07:39;30.80;93.50
12588;DHT22;6359;51.450;7.346;2022-08-21T08:10:07;30.50;93.90
12588;DHT22;6359;51.450;7.346;2022-08-21T08:12:36;30.80;92.40
12588;DHT22;6359;51.450;7.346;2022-08-21T08:15:05;30.70;91.70
12588;DHT22;6359;51.450;7.346;2022-08-21T08:17:34;30.60;92.70
12588;DHT22;6359;51.450;7.346;2022-08-21T08:20:04;31.20;90.70
12588;DHT22;6359;51.450;7.346;2022-08-21T08:22:31;31.70;87.40
12588;DHT22;6359;51.450;7.346;2022-08-21T08:24:58;31.30;84.80
12588;DHT22;6359;51.450;7.346;2022-08-21T08:27:25;30.40;84.90
12588;DHT22;6359;51.450;7.346;2022-08-21T08:29:52;30.70;85.40
12588;DHT22;6359;51.450;7.346;2022-08-21T08:32:20;30.50;86.10
12588;DHT22;6359;51.450;7.346;2022-08-21T08:34:48;31.10;83.90
12588;DHT22;6359;51.450;7.346;2022-08-21T08:37:19;31.00;86.40
12588;DHT22;6359;51.450;7.346;2022-08-21T08:39:47;31.50;84.00
12588;DHT22;6359;51.450;7.346;2022-08-21T08:42:16;31.80;80.80
12588;DHT22;6359;51.450;7.346;2022-08-21T08:44:45;31.30;81.70
12588;DHT22;6359;51.450;7.346;2022-08-21T08:47:15;30.90;81.00
12588;DHT22;6359;51.450;7.346;2022-08-21T08:49:58;31.30;79.50
12588;DHT22;6359;51.450;7.346;2022-08-21T08:52:31;31.20;82.10
12588;DHT22;6359;51.450;7.346;2022-08-21T08:55:03;31.50;79.50
12588;DHT22;6359;51.450;7.346;2022-08-21T08:57:32;31.90;76.90
12588;DHT22;6359;51.450;7.346;2022-08-21T09:00:04;31.80;78.20
12588;DHT22;6359;51.450;7.346;2022-08-21T09:02:32;31.50;76.60
12588;DHT22;6359;51.450;7.346;2022-08-21T09:05:01;31.30;77.80
12588;DHT22;6359;51.450;7.346;2022-08-21T09:07:35;31.40;75.90
12588;DHT22;6359;51.450;7.346;2022-08-21T09:10:12;31.70;75.10
12588;DHT22;6359;51.450;7.346;2022-08-21T09:12:50;31.20;76.10
12588;DHT22;6359;51.450;7.346;2022-08-21T09:15:25;31.30;76.70
12588;DHT22;6359;51.450;7.346;2022-08-21T09:18:04;31.20;75.80
12588;DHT22;6359;51.450;7.346;2022-08-21T09:20:38;31.50;74.70
12588;DHT22;6359;51.450;7.346;2022-08-21T09:23:17;32.10;74.80
12588;DHT22;6359;51.450;7.346;2022-08-21T09:25:53;32.00;75.30
12588;DHT22;6359;51.450;7.346;2022-08-21T09:28:20;32.00;77.20
12588;DHT22;6359;51.450;7.346;2022-08-21T09:30:48;32.10;76.50
12588;DHT22;6359;51.450;7.346;2022-08-21T09:33:15;31.50;74.80
12588;DHT22;6359;51.450;7.346;2022-08-21T09:35:54;31.20;75.90
12588;DHT22;6359;51.450;7.346;2022-08-21T09:38:29;31.40;76.20
12588;DHT22;6359;51.450;7.346;2022-08-21T09:41:01;31.70;75.50
12588;DHT22;6359;51.450;7.346;2022-08-21T09:43:29;31.70;78.10
12588;DHT22;6359;51.450;7.346;2022-08-21T09:46:06;31.60;75.20
12588;DHT22;6359;51.450;7.346;2022-08-21T09:48:41;30.70;78.80
12588;DHT22;6359;51.450;7.346;2022-08-21T09:51:12;31.00;80.00
12588;DHT22;6359;51.450;7.346;2022-08-21T09:53:46;31.50;75.70
12588;DHT22;6359;51.450;7.346;2022-08-21T09:56:21;31.20;75.30
12588;DHT22;6359;51.450;7.346;2022-08-21T09:59:14;30.60;76.50
12588;DHT22;6359;51.450;7.346;2022-08-21T10:01:44;30.80;77.20
12588;DHT22;6359;51.450;7.346;2022-08-21T10:04:11;31.20;75.40
12588;DHT22;6359;51.450;7.346;2022-08-21T10:06:40;30.50;76.90
12588;DHT22;6359;51.450;7.346;2022-08-21T10:09:11;29.90;78.00
12588;DHT22;6359;51.450;7.346;2022-08-21T10:11:39;29.90;78.30
12588;DHT22;6359;51.450;7.346;2022-08-21T10:14:14;30.20;76.20
12588;DHT22;6359;51.450;7.346;2022-08-21T10:16:54;30.40;77.20
12588;DHT22;6359;51.450;7.346;2022-08-21T10:19:30;31.20;78.10
12588;DHT22;6359;51.450;7.346;2022-08-21T10:22:10;32.30;76.00
12588;DHT22;6359;51.450;7.346;2022-08-21T10:24:49;32.50;74.80
12588;DHT22;6359;51.450;7.346;2022-08-21T10:27:25;32.50;72.70
12588;DHT22;6359;51.450;7.346;2022-08-21T10:29:57;31.90;72.90
12588;DHT22;6359;51.450;7.346;2022-08-21T10:35:24;30.60;74.50
12588;DHT22;6359;51.450;7.346;2022-08-21T10:38:21;30.50;76.00
12588;DHT22;6359;51.450;7.346;2022-08-21T10:40:57;30.80;81.40
12588;DHT22;6359;51.450;7.346;2022-08-21T10:43:34;31.40;74.30
12588;DHT22;6359;51.450;7.346;2022-08-21T10:46:22;31.10;73.70
12588;DHT22;6359;51.450;7.346;2022-08-21T10:48:57;31.20;75.90
12588;DHT22;6359;51.450;7.346;2022-08-21T10:51:31;31.00;75.50
12588;DHT22;6359;51.450;7.346;2022-08-21T10:54:07;30.40;76.60
12588;DHT22;6359;51.450;7.346;2022-08-21T10:56:39;30.50;76.20
12588;DHT22;6359;51.450;7.346;2022-08-21T10:59:26;31.20;76.40
12588;DHT22;6359;51.450;7.346;2022-08-21T11:01:59;30.50;74.50
12588;DHT22;6359;51.450;7.346;2022-08-21T11:04:31;30.50;74.90
12588;DHT22;6359;51.450;7.346;2022-08-21T11:07:05;30.30;76.20
12588;DHT22;6359;51.450;7.346;2022-08-21T11:09:36;30.70;74.50
12588;DHT22;6359;51.450;7.346;2022-08-21T11:12:12;30.70;75.80
12588;DHT22;6359;51.450;7.346;2022-08-21T11:14:49;30.60;77.70
12588;DHT22;6359;51.450;7.346;2022-08-21T11:17:24;30.80;73.70
12588;DHT22;6359;51.450;7.346;2022-08-21T11:20:02;30.90;73.80
12588;DHT22;6359;51.450;7.346;2022-08-21T11:22:36;30.10;74.50
12588;DHT22;6359;51.450;7.346;2022-08-21T11:25:13;29.00;76.90
12588;DHT22;6359;51.450;7.346;2022-08-21T11:27:44;29.20;77.60
12588;DHT22;6359;51.450;7.346;2022-08-21T11:30:13;28.70;77.40
12588;DHT22;6359;51.450;7.346;2022-08-21T11:32:58;28.50;77.70
12588;DHT22;6359;51.450;7.346;2022-08-21T11:35:35;28.40;79.60
12588;DHT22;6359;51.450;7.346;2022-08-21T11:38:15;28.30;78.60
12588;DHT22;6359;51.450;7.346;2022-08-21T11:41:09;28.00;82.90
12588;DHT22;6359;51.450;7.346;2022-08-21T11:43:41;27.80;79.70
12588;DHT22;6359;51.450;7.346;2022-08-21T11:46:22;27.90;82.90
12588;DHT22;6359;51.450;7.346;2022-08-21T11:49:04;28.10;80.50
12588;DHT22;6359;51.450;7.346;2022-08-21T11:51:37;28.00;80.10
12588;DHT22;6359;51.450;7.346;2022-08-21T11:54:21;27.80;78.80
12588;DHT22;6359;51.450;7.346;2022-08-21T11:56:55;27.60;80.70
12588;DHT22;6359;51.450;7.346;2022-08-21T11:59:39;27.60;81.20
12588;DHT22;6359;51.450;7.346;2022-08-21T12:02:13;27.60;83.70
12588;DHT22;6359;51.450;7.346;2022-08-21T12:04:46;27.30;80.30
12588;DHT22;6359;51.450;7.346;2022-08-21T12:07:16;27.50;84.30
12588;DHT22;6359;51.450;7.346;2022-08-21T12:09:53;27.30;82.20
12588;DHT22;6359;51.450;7.346;2022-08-21T12:12:27;27.20;85.80
12588;DHT22;6359;51.450;7.346;2022-08-21T12:15:23;27.20;85.40
12588;DHT22;6359;51.450;7.346;2022-08-21T12:17:57;27.10;85.70
12588;DHT22;6359;51.450;7.346;2022-08-21T12:20:39;27.20;87.30
12588;DHT22;6359;51.450;7.346;2022-08-21T12:23:24;27.30;86.40
12588;DHT22;6359;51.450;7.346;2022-08-21T12:26:10;27.10;87.20
12588;DHT22;6359;51.450;7.346;2022-08-21T12:28:41;27.20;85.80
12588;DHT22;6359;51.450;7.346;2022-08-21T12:31:19;27.60;86.30
12588;DHT22;6359;51.450;7.346;2022-08-21T12:33:55;27.60;80.30
12588;DHT22;6359;51.450;7.346;2022-08-21T12:36:27;28.00;80.80
12588;DHT22;6359;51.450;7.346;2022-08-21T12:38:59;27.70;78.20
12588;DHT22;6359;51.450;7.346;2022-08-21T12:41:30;27.00;81.00
12588;DHT22;6359;51.450;7.346;2022-08-21T12:44:03;26.90;80.50
12588;DHT22;6359;51.450;7.346;2022-08-21T12:46:37;27.00;80.00
12588;DHT22;6359;51.450;7.346;2022-08-21T12:49:13;27.20;80.90
12588;DHT22;6359;51.450;7.346;2022-08-21T12:51:52;27.00;81.60
12588;DHT22;6359;51.450;7.346;2022-08-21T12:54:26;27.10;80.50
12588;DHT22;6359;51.450;7.346;2022-08-21T12:56:58;27.00;83.30
12588;DHT22;6359;51.450;7.346;2022-08-21T12:59:28;26.80;82.40
12588;DHT22;6359;51.450;7.346;2022-08-21T13:01:56;26.70;82.90
12588;DHT22;6359;51.450;7.346;2022-08-21T13:04:34;26.90;82.00
12588;DHT22;6359;51.450;7.346;2022-08-21T13:07:05;26.90;81.40
12588;DHT22;6359;51.450;7.346;2022-08-21T13:09:39;27.00;83.80
12588;DHT22;6359;51.450;7.346;2022-08-21T13:12:08;27.00;83.60
12588;DHT22;6359;51.450;7.346;2022-08-21T13:14:39;26.90;83.20
12588;DHT22;6359;51.450;7.346;2022-08-21T13:17:07;26.70;81.50
12588;DHT22;6359;51.450;7.346;2022-08-21T13:19:35;26.70;85.70
12588;DHT22;6359;51.450;7.346;2022-08-21T13:22:02;26.60;83.80
12588;DHT22;6359;51.450;7.346;2022-08-21T13:24:32;26.30;84.20
12588;DHT22;6359;51.450;7.346;2022-08-21T13:26:59;26.20;87.40
12588;DHT22;6359;51.450;7.346;2022-08-21T13:29:30;26.10;85.30
12588;DHT22;6359;51.450;7.346;2022-08-21T13:32:00;26.00;86.10
12588;DHT22;6359;51.450;7.346;2022-08-21T13:34:31;26.20;86.40
12588;DHT22;6359;51.450;7.346;2022-08-21T13:37:01;26.20;82.70
12588;DHT22;6359;51.450;7.346;2022-08-21T13:39:30;26.20;83.10
12588;DHT22;6359;51.450;7.346;2022-08-21T13:42:00;26.20;84.50
12588;DHT22;6359;51.450;7.346;2022-08-21T13:44:33;26.40;84.50
12588;DHT22;6359;51.450;7.346;2022-08-21T13:47:04;26.50;88.00
12588;DHT22;6359;51.450;7.346;2022-08-21T13:49:33;26.20;88.20
12588;DHT22;6359;51.450;7.346;2022-08-21T13:52:01;26.10;89.70
12588;DHT22;6359;51.450;7.346;2022-08-21T13:54:34;26.10;87.30
12588;DHT22;6359;51.450;7.346;2022-08-21T13:57:01;26.10;91.30
12588;DHT22;6359;51.450;7.346;2022-08-21T13:59:30;25.90;87.40
12588;DHT22;6359;51.450;7.346;2022-08-21T14:01:59;25.70;89.70
12588;DHT22;6359;51.450;7.346;2022-08-21T14:04:35;25.80;91.10
12588;DHT22;6359;51.450;7.346;2022-08-21T14:07:15;25.90;91.40
12588;DHT22;6359;51.450;7.346;2022-08-21T14:09:44;26.10;90.00
12588;DHT22;6359;51.450;7.346;2022-08-21T14:12:14;26.20;88.60
12588;DHT22;6359;51.450;7.346;2022-08-21T14:14:41;25.90;89.10
12588;DHT22;6359;51.450;7.346;2022-08-21T14:17:13;25.90;88.40
12588;DHT22;6359;51.450;7.346;2022-08-21T14:19:43;26.10;90.30
12588;DHT22;6359;51.450;7.346;2022-08-21T14:22:29;26.20;91.60
12588;DHT22;6359;51.450;7.346;2022-08-21T14:25:04;26.40;92.20
12588;DHT22;6359;51.450;7.346;2022-08-21T14:27:33;26.80;88.60
12588;DHT22;6359;51.450;7.346;2022-08-21T14:30:03;26.90;87.50
12588;DHT22;6359;51.450;7.346;2022-08-21T14:32:39;27.10;87.80
12588;DHT22;6359;51.450;7.346;2022-08-21T14:35:08;27.20;86.00
12588;DHT22;6359;51.450;7.346;2022-08-21T14:37:36;27.10;87.10
12588;DHT22;6359;51.450;7.346;2022-08-21T14:40:04;27.10;87.70
12588;DHT22;6359;51.450;7.346;2022-08-21T14:42:31;27.20;89.00
12588;DHT22;6359;51.450;7.346;2022-08-21T14:45:02;27.00;86.60
12588;DHT22;6359;51.450;7.346;2022-08-21T14:47:31;26.70;84.90
12588;DHT22;6359;51.450;7.346;2022-08-21T14:49:58;26.50;84.90
12588;DHT22;6359;51.450;7.346;2022-08-21T14:52:27;26.20;86.90
12588;DHT22;6359;51.450;7.346;2022-08-21T14:54:54;26.00;87.90
12588;DHT22;6359;51.450;7.346;2022-08-21T14:57:20;25.80;87.00
12588;DHT22;6359;51.450;7.346;2022-08-21T14:59:47;25.50;88.00
12588;DHT22;6359;51.450;7.346;2022-08-21T15:02:14;25.40;91.30
12588;DHT22;6359;51.450;7.346;2022-08-21T15:04:41;25.50;90.00
12588;DHT22;6359;51.450;7.346;2022-08-21T15:07:08;25.40;90.50
12588;DHT22;6359;51.450;7.346;2022-08-21T15:09:37;25.50;91.00
12588;DHT22;6359;51.450;7.346;2022-08-21T15:12:04;25.50;91.40
12588;DHT22;6359;51.450;7.346;2022-08-21T15:14:36;25.60;92.00
12588;DHT22;6359;51.450;7.346;2022-08-21T15:17:06;25.80;91.30
12588;DHT22;6359;51.450;7.346;2022-08-21T15:19:34;25.80;91.10
12588;DHT22;6359;51.450;7.346;2022-08-21T15:22:01;25.80;91.30
12588;DHT22;6359;51.450;7.346;2022-08-21T15:24:28;26.00;91.90
12588;DHT22;6359;51.450;7.346;2022-08-21T15:26:58;26.10;91.50
12588;DHT22;6359;51.450;7.346;2022-08-21T15:29:25;26.20;92.20
12588;DHT22;6359;51.450;7.346;2022-08-21T15:31:57;26.30;91.90
12588;DHT22;6359;51.450;7.346;2022-08-21T15:34:25;26.40;92.50
12588;DHT22;6359;51.450;7.346;2022-08-21T15:36:52;26.70;92.40
12588;DHT22;6359;51.450;7.346;2022-08-21T15:39:19;26.90;90.80
12588;DHT22;6359;51.450;7.346;2022-08-21T15:41:47;27.10;90.70
12588;DHT22;6359;51.450;7.346;2022-08-21T15:44:16;27.00;91.00
12588;DHT22;6359;51.450;7.346;2022-08-21T15:46:43;26.70;90.50
12588;DHT22;6359;51.450;7.346;2022-08-21T15:49:11;26.40;86.70
12588;DHT22;6359;51.450;7.346;2022-08-21T15:51:38;26.20;90.40
12588;DHT22;6359;51.450;7.346;2022-08-21T15:54:05;26.30;91.10
12588;DHT22;6359;51.450;7.346;2022-08-21T15:56:34;26.40;90.90
12588;DHT22;6359;51.450;7.346;2022-08-21T15:59:05;26.50;91.20
12588;DHT22;6359;51.450;7.346;2022-08-21T16:01:35;26.50;90.30
12588;DHT22;6359;51.450;7.346;2022-08-21T16:04:04;26.30;90.40
12588;DHT22;6359;51.450;7.346;2022-08-21T16:06:31;26.10;91.20